Time;durP1;ratioP1;P1;durP2;ratioP2;P2;SDS_P1;SDS_P2;PMS_P1;PMS_P2;Temp;Humidity;BMP_temperature;BMP_pressure;BME280_temperature;BME280_humidity;BME280_pressure;Samples;Min_cycle;Max_cycle;Signal;HPM_P1;HPM_P2
2022/09/22 00:01:23;;;;;;;8.05;2.30;;;;;;;;;;5042156;28;20454;-66
2022/09/22 00:03:51;;;;;;;7.47;2.40;;;;;;;;;;5046632;28;20036;-66
2022/09/22 00:06:25;;;;;;;7.97;2.72;;;;;;;;;;5041756;28;20028;-66
2022/09/22 00:08:52;;;;;;;6.97;2.30;;;;;;;;;;5047933;28;20083;-66
2022/09/22 00:11:20;;;;;;;7.68;2.50;;;;;;;;;;5041568;28;20067;-66
2022/09/22 00:13:51;;;;;;;8.38;2.58;;;;;;;;;;5048945;28;20459;-66
2022/09/22 00:16:19;;;;;;;7.35;2.50;;;;;;;;;;5044100;28;20048;-66
2022/09/22 00:18:45;;;;;;;8.30;2.42;;;;;;;;;;5047269;28;20032;-66
2022/09/22 00:21:12;;;;;;;6.95;2.45;;;;;;;;;;5044797;28;20534;-66
2022/09/22 00:23:39;;;;;;;8.25;2.30;;;;;;;;;;5044717;28;20040;-66
2022/09/22 00:26:07;;;;;;;7.13;2.33;;;;;;;;;;5041954;28;20471;-67
2022/09/22 00:28:33;;;;;;;7.60;2.30;;;;;;;;;;5045747;28;20056;-66
2022/09/22 00:31:03;;;;;;;7.63;2.00;;;;;;;;;;5048429;28;20031;-66
2022/09/22 00:33:29;;;;;;;6.97;1.95;;;;;;;;;;5046460;28;20130;-66
2022/09/22 00:35:55;;;;;;;;;;;;;;;;;;5048319;28;20039;-67
2022/09/22 00:38:21;;;;;;;6.80;2.22;;;;;;;;;;5046166;28;19913;-66
2022/09/22 00:40:48;;;;;;;5.68;2.00;;;;;;;;;;5050052;28;20044;-66
2022/09/22 00:43:15;;;;;;;5.47;1.77;;;;;;;;;;5046926;28;20029;-66
2022/09/22 00:45:42;;;;;;;6.38;1.92;;;;;;;;;;5051526;28;20604;-66
2022/09/22 00:48:08;;;;;;;7.00;2.00;;;;;;;;;;5046801;28;20063;-66
2022/09/22 00:50:34;;;;;;;6.55;2.20;;;;;;;;;;5049076;28;20200;-66
2022/09/22 00:53:07;;;;;;;7.95;2.25;;;;;;;;;;5047454;28;20303;-66
2022/09/22 00:55:51;;;;;;;7.97;2.17;;;;;;;;;;5051519;28;20108;-66
2022/09/22 00:58:20;;;;;;;6.38;1.80;;;;;;;;;;5040909;28;20139;-66
2022/09/22 01:00:46;;;;;;;6.00;2.00;;;;;;;;;;5046979;28;20585;-66
2022/09/22 01:03:13;;;;;;;5.32;1.77;;;;;;;;;;5048075;28;20043;-66
2022/09/22 01:05:41;;;;;;;8.00;1.92;;;;;;;;;;5050286;28;20055;-66
2022/09/22 01:08:07;;;;;;;7.63;2.10;;;;;;;;;;5048277;28;20052;-66
2022/09/22 01:10:33;;;;;;;8.00;2.00;;;;;;;;;;5051107;28;20407;-66
2022/09/22 01:13:08;;;;;;;6.35;2.05;;;;;;;;;;5051160;28;20033;-66
2022/09/22 01:15:55;;;;;;;6.80;2.05;;;;;;;;;;5050384;28;20059;-66
2022/09/22 01:18:36;;;;;;;5.45;2.00;;;;;;;;;;5044075;28;20044;-66
2022/09/22 01:21:02;;;;;;;7.43;1.83;;;;;;;;;;5048364;28;20587;-66
2022/09/22 01:23:28;;;;;;;;;;;;;;;;;;5048675;28;20020;-66
2022/09/22 01:25:57;;;;;;;7.05;2.20;;;;;;;;;;5049522;28;20316;-66
2022/09/22 01:28:38;;;;;;;8.15;2.42;;;;;;;;;;5046456;28;20741;-66
2022/09/22 01:31:10;;;;;;;8.38;2.78;;;;;;;;;;5046896;28;20437;-66
2022/09/22 01:33:36;;;;;;;7.38;2.53;;;;;;;;;;5047812;28;20752;-66
2022/09/22 01:36:15;;;;;;;8.32;2.50;;;;;;;;;;5049284;28;20028;-66
2022/09/22 01:38:44;;;;;;;8.02;2.75;;;;;;;;;;5048822;28;20519;-66
2022/09/22 01:41:14;;;;;;;6.35;2.30;;;;;;;;;;5047063;28;20017;-66
2022/09/22 01:43:59;;;;;;;7.20;2.40;;;;;;;;;;5049271;28;20035;-66
2022/09/22 01:46:33;;;;;;;8.00;2.53;;;;;;;;;;5046036;28;20791;-66
2022/09/22 01:49:02;;;;;;;7.13;2.63;;;;;;;;;;5048849;28;20166;-66
2022/09/22 01:51:34;;;;;;;8.10;2.63;;;;;;;;;;5046978;28;20036;-66
2022/09/22 01:54:26;;;;;;;9.52;2.58;;;;;;;;;;5044800;28;20107;-65
2022/09/22 01:56:58;;;;;;;8.18;2.50;;;;;;;;;;5047686;28;20090;-66
2022/09/22 01:59:27;;;;;;;6.95;2.15;;;;;;;;;;5045430;28;21895;-66
2022/09/22 02:02:06;;;;;;;5.50;1.95;;;;;;;;;;5049771;28;20562;-65
2022/09/22 02:04:38;;;;;;;8.00;2.22;;;;;;;;;;5050055;28;20036;-65
2022/09/22 02:07:06;;;;;;;9.40;2.90;;;;;;;;;;5042844;28;20498;-66
2022/09/22 02:09:34;;;;;;;8.38;2.30;;;;;;;;;;5046789;28;20032;-66
2022/09/22 02:12:00;;;;;;;7.65;2.20;;;;;;;;;;5049238;28;20029;-66
2022/09/22 02:14:27;;;;;;;8.45;2.92;;;;;;;;;;5038309;28;20500;-65
2022/09/22 02:16:53;;;;;;;7.85;2.88;;;;;;;;;;5046709;28;20117;-65
2022/09/22 02:19:40;;;;;;;7.53;2.80;;;;;;;;;;5047066;28;20393;-66
2022/09/22 02:22:06;;;;;;;8.48;2.53;;;;;;;;;;5044270;28;20033;-64
2022/09/22 02:24:36;;;;;;;8.80;2.70;;;;;;;;;;5049266;28;20117;-66
2022/09/22 02:27:13;;;;;;;7.28;2.50;;;;;;;;;;5047901;28;20052;-67
2022/09/22 02:29:44;;;;;;;9.75;2.40;;;;;;;;;;5047630;28;20064;-66
2022/09/22 02:32:13;;;;;;;7.07;2.50;;;;;;;;;;5047010;28;20039;-66
2022/09/22 02:34:40;;;;;;;9.65;2.50;;;;;;;;;;5050326;28;20108;-65
2022/09/22 02:37:09;;;;;;;8.52;2.33;;;;;;;;;;5046788;28;20140;-66
2022/09/22 02:39:39;;;;;;;6.78;2.00;;;;;;;;;;5047826;28;20371;-66
2022/09/22 02:42:25;;;;;;;5.78;1.98;;;;;;;;;;5044491;28;20028;-65
2022/09/22 02:44:56;;;;;;;8.57;2.42;;;;;;;;;;5050834;28;20016;-66
2022/09/22 02:47:41;;;;;;;8.18;2.30;;;;;;;;;;5045985;28;20562;-66
2022/09/22 02:50:08;;;;;;;9.60;2.25;;;;;;;;;;5043418;28;20036;-66
2022/09/22 02:52:36;;;;;;;7.93;2.00;;;;;;;;;;5047594;28;20279;-67
2022/09/22 02:55:03;;;;;;;9.23;1.90;;;;;;;;;;5049498;28;20155;-66
2022/09/22 02:57:29;;;;;;;5.85;1.77;;;;;;;;;;5046117;28;20063;-66
2022/09/22 02:59:55;;;;;;;;;;;;;;;;;;5047196;28;20025;-66
2022/09/22 03:02:22;;;;;;;5.85;1.60;;;;;;;;;;5044791;28;20182;-66
2022/09/22 03:04:50;;;;;;;6.35;1.60;;;;;;;;;;5041112;28;20123;-66
2022/09/22 03:07:16;;;;;;;8.57;2.20;;;;;;;;;;5043444;28;20028;-66
2022/09/22 03:09:43;;;;;;;6.45;1.55;;;;;;;;;;5046576;28;20036;-66
2022/09/22 03:12:09;;;;;;;7.47;1.90;;;;;;;;;;5043211;28;20037;-66
2022/09/22 03:14:35;;;;;;;6.30;1.83;;;;;;;;;;5046662;28;20031;-65
2022/09/22 03:17:01;;;;;;;;;;;;;;;;;;5049500;28;20536;-65
2022/09/22 03:19:27;;;;;;;7.25;2.05;;;;;;;;;;5045570;28;20653;-64
2022/09/22 03:21:53;;;;;;;6.93;1.98;;;;;;;;;;5046455;28;20021;-64
2022/09/22 03:24:19;;;;;;;6.97;1.98;;;;;;;;;;5043290;28;20642;-64
2022/09/22 03:26:45;;;;;;;6.45;1.75;;;;;;;;;;5048507;28;20024;-64
2022/09/22 03:29:11;;;;;;;;;;;;;;;;;;5045530;28;20109;-65
2022/09/22 03:31:37;;;;;;;7.95;2.10;;;;;;;;;;5048246;28;19912;-68
2022/09/22 03:34:03;;;;;;;5.55;1.73;;;;;;;;;;5045840;28;20032;-64
2022/09/22 03:36:29;;;;;;;;;;;;;;;;;;5047577;28;20443;-65
2022/09/22 03:38:55;;;;;;;6.80;1.90;;;;;;;;;;5048560;28;20430;-65
2022/09/22 03:41:22;;;;;;;8.18;2.10;;;;;;;;;;5044778;28;20802;-65
2022/09/22 03:43:47;;;;;;;;;;;;;;;;;;5048500;28;20063;-65
2022/09/22 03:46:14;;;;;;;8.43;2.60;;;;;;;;;;5043952;28;20000;-65
2022/09/22 03:48:40;;;;;;;7.20;2.22;;;;;;;;;;5047905;28;20055;-66
2022/09/22 03:51:06;;;;;;;;;;;;;;;;;;5040896;28;20513;-66
2022/09/22 03:53:32;;;;;;;6.28;2.25;;;;;;;;;;5052093;28;19918;-66
2022/09/22 03:56:08;;;;;;;7.40;2.20;;;;;;;;;;5049106;28;20653;-66
2022/09/22 03:58:35;;;;;;;7.43;2.22;;;;;;;;;;5048882;28;21150;-65
2022/09/22 04:01:01;;;;;;;7.43;2.22;;;;;;;;;;5048273;28;20562;-65
2022/09/22 04:03:28;;;;;;;7.35;2.10;;;;;;;;;;5042438;28;20028;-65
2022/09/22 04:05:54;;;;;;;6.25;1.98;;;;;;;;;;5049903;28;20033;-65
2022/09/22 04:08:20;;;;;;;;;;;;;;;;;;5045805;28;20036;-65
2022/09/22 04:10:46;;;;;;;6.50;1.80;;;;;;;;;;5062105;28;20384;-65
2022/09/22 04:13:12;;;;;;;9.55;2.00;;;;;;;;;;5045287;28;20036;-67
2022/09/22 04:15:38;;;;;;;6.97;2.10;;;;;;;;;;5048278;28;20032;-65
2022/09/22 04:18:05;;;;;;;7.95;2.00;;;;;;;;;;5044849;28;20685;-66
2022/09/22 04:20:31;;;;;;;6.95;2.13;;;;;;;;;;5058380;28;20029;-65
2022/09/22 04:22:57;;;;;;;6.82;1.98;;;;;;;;;;5046559;28;20028;-65
2022/09/22 04:25:23;;;;;;;;;;;;;;;;;;5041350;28;20324;-65
2022/09/22 04:27:49;;;;;;;7.80;1.98;;;;;;;;;;5044484;28;20506;-65
2022/09/22 04:30:16;;;;;;;7.18;2.03;;;;;;;;;;5044402;28;20110;-65
2022/09/22 04:32:42;;;;;;;8.13;2.33;;;;;;;;;;5043576;28;20367;-66
2022/09/22 04:35:08;;;;;;;;;;;;;;;;;;5043762;28;20032;-65
2022/09/22 04:37:34;;;;;;;8.17;2.00;;;;;;;;;;5048512;28;19924;-65
2022/09/22 04:40:00;;;;;;;7.85;1.90;;;;;;;;;;5045613;28;20042;-66
2022/09/22 04:42:26;;;;;;;9.32;2.30;;;;;;;;;;5045232;28;20115;-65
2022/09/22 04:44:55;;;;;;;;;;;;;;;;;;5046336;28;20036;-65
2022/09/22 04:47:22;;;;;;;10.32;2.40;;;;;;;;;;5053479;28;20422;-66
2022/09/22 04:49:48;;;;;;;8.77;2.35;;;;;;;;;;5045190;28;20040;-66
2022/09/22 04:52:14;;;;;;;8.90;2.58;;;;;;;;;;5043884;28;20067;-65
2022/09/22 04:54:40;;;;;;;;;;;;;;;;;;5044227;28;20028;-65
2022/09/22 04:57:07;;;;;;;9.45;2.05;;;;;;;;;;5039749;28;19916;-65
2022/09/22 04:59:34;;;;;;;6.95;2.00;;;;;;;;;;5043805;28;20020;-65
2022/09/22 05:02:00;;;;;;;6.07;1.83;;;;;;;;;;5046018;28;20020;-65
2022/09/22 05:04:27;;;;;;;7.85;1.60;;;;;;;;;;5043459;28;20583;-68
2022/09/22 05:06:54;;;;;;;7.53;1.73;;;;;;;;;;5046140;28;20224;-66
2022/09/22 05:09:20;;;;;;;6.07;1.70;;;;;;;;;;5043589;28;20028;-66
2022/09/22 05:11:49;;;;;;;7.78;1.55;;;;;;;;;;5041939;28;20039;-65
2022/09/22 05:14:16;;;;;;;9.80;2.00;;;;;;;;;;5041491;28;20046;-65
2022/09/22 05:16:43;;;;;;;9.30;2.00;;;;;;;;;;5047087;28;20414;-65
2022/09/22 05:19:09;;;;;;;7.05;1.80;;;;;;;;;;5043417;28;20056;-65
2022/09/22 05:21:36;;;;;;;5.10;1.60;;;;;;;;;;5048478;28;20013;-65
2022/09/22 05:24:02;;;;;;;9.55;1.70;;;;;;;;;;5047402;28;20059;-65
2022/09/22 05:26:31;;;;;;;6.85;1.60;;;;;;;;;;5047007;28;20027;-64
2022/09/22 05:28:58;;;;;;;5.78;1.60;;;;;;;;;;5050586;28;20107;-66
2022/09/22 05:31:23;;;;;;;;;;;;;;;;;;5048524;28;20186;-67
2022/09/22 05:33:50;;;;;;;6.28;1.83;;;;;;;;;;5050633;28;19908;-65
2022/09/22 05:36:15;;;;;;;;;;;;;;;;;;5048000;28;20129;-65
2022/09/22 05:38:42;;;;;;;8.00;2.20;;;;;;;;;;5052297;28;20362;-66
2022/09/22 05:41:08;;;;;;;7.20;1.92;;;;;;;;;;5045785;28;20457;-65
2022/09/22 05:43:34;;;;;;;8.60;2.03;;;;;;;;;;5047319;28;20761;-67
2022/09/22 05:46:00;;;;;;;;;;;;;;;;;;5054478;28;20120;-67
2022/09/22 05:48:26;;;;;;;7.70;2.20;;;;;;;;;;5056105;28;20047;-67
2022/09/22 05:50:52;;;;;;;;;;;;;;;;;;5048187;28;20039;-67
2022/09/22 05:53:18;;;;;;;8.10;2.00;;;;;;;;;;5068586;28;19917;-66
2022/09/22 05:55:44;;;;;;;;;;;;;;;;;;5055966;28;20321;-67
2022/09/22 05:58:11;;;;;;;9.05;2.22;;;;;;;;;;5053677;28;20368;-67
2022/09/22 06:00:38;;;;;;;9.25;2.10;;;;;;;;;;5059184;28;20107;-66
2022/09/22 06:03:04;;;;;;;8.10;2.30;;;;;;;;;;5062024;28;20565;-67
2022/09/22 06:05:31;;;;;;;10.25;2.50;;;;;;;;;;5064349;28;20024;-67
2022/09/22 06:08:02;;;;;;;8.00;2.38;;;;;;;;;;5062876;28;20120;-66
2022/09/22 06:10:28;;;;;;;12.68;1.92;;;;;;;;;;5057976;28;20039;-68
2022/09/22 06:12:58;;;;;;;8.68;2.00;;;;;;;;;;5067248;28;20669;-67
2022/09/22 06:15:25;;;;;;;7.22;1.85;;;;;;;;;;5058063;28;21626;-67
2022/09/22 06:17:52;;;;;;;6.90;1.77;;;;;;;;;;5055764;28;20071;-67
2022/09/22 06:20:18;;;;;;;7.22;1.83;;;;;;;;;;5052422;28;20364;-67
2022/09/22 06:22:44;;;;;;;8.43;1.65;;;;;;;;;;5057945;28;20112;-67
2022/09/22 06:25:10;;;;;;;8.52;1.98;;;;;;;;;;5054283;28;20033;-67
2022/09/22 06:27:37;;;;;;;8.32;2.05;;;;;;;;;;5060507;28;20448;-67
2022/09/22 06:30:03;;;;;;;8.13;2.38;;;;;;;;;;5064500;28;20139;-67
2022/09/22 06:32:31;;;;;;;9.60;2.10;;;;;;;;;;5061215;28;20044;-66
2022/09/22 06:35:01;;;;;;;6.65;1.60;;;;;;;;;;5063588;28;20037;-67
2022/09/22 06:37:37;;;;;;;8.45;2.45;;;;;;;;;;5053331;28;20029;-66
2022/09/22 06:40:05;;;;;;;9.45;2.08;;;;;;;;;;5059127;28;20040;-68
2022/09/22 06:42:32;;;;;;;7.03;1.75;;;;;;;;;;5060688;28;20030;-67
2022/09/22 06:44:59;;;;;;;6.70;1.77;;;;;;;;;;5057929;28;20085;-66
2022/09/22 06:47:25;;;;;;;8.13;2.20;;;;;;;;;;5058646;28;20043;-66
2022/09/22 06:49:52;;;;;;;9.25;2.00;;;;;;;;;;5060878;28;20045;-67
2022/09/22 06:52:18;;;;;;;9.38;2.22;;;;;;;;;;5055280;28;20024;-66
2022/09/22 06:54:44;;;;;;;6.00;1.50;;;;;;;;;;5058233;28;20032;-67
2022/09/22 06:57:11;;;;;;;5.22;1.70;;;;;;;;;;5059935;28;20465;-65
2022/09/22 06:59:39;;;;;;;7.85;1.98;;;;;;;;;;5061386;28;20081;-67
2022/09/22 07:02:06;;;;;;;8.23;2.05;;;;;;;;;;5053544;28;20017;-66
2022/09/22 07:04:35;;;;;;;10.27;1.90;;;;;;;;;;5054378;28;20028;-67
2022/09/22 07:07:02;;;;;;;8.82;1.95;;;;;;;;;;5058228;28;20021;-66
2022/09/22 07:09:30;;;;;;;7.00;1.30;;;;;;;;;;5059990;28;20029;-67
2022/09/22 07:11:56;;;;;;;7.43;1.73;;;;;;;;;;5064794;28;20032;-66
2022/09/22 07:14:24;;;;;;;8.63;1.70;;;;;;;;;;5055534;28;20604;-67
2022/09/22 07:16:51;;;;;;;9.38;1.60;;;;;;;;;;5062976;28;20288;-66
2022/09/22 07:19:17;;;;;;;6.25;1.60;;;;;;;;;;5050084;28;20088;-67
2022/09/22 07:21:45;;;;;;;7.68;1.50;;;;;;;;;;5060436;28;20052;-66
2022/09/22 07:24:11;;;;;;;8.38;1.52;;;;;;;;;;5054719;28;20462;-66
2022/09/22 07:26:38;;;;;;;7.50;1.70;;;;;;;;;;5065754;28;20028;-67
2022/09/22 07:29:07;;;;;;;5.22;1.40;;;;;;;;;;5057261;28;20035;-65
2022/09/22 07:31:36;;;;;;;7.13;1.40;;;;;;;;;;5058015;28;20031;-66
2022/09/22 07:34:02;;;;;;;6.15;1.70;;;;;;;;;;5052095;28;20170;-66
2022/09/22 07:36:29;;;;;;;7.68;1.70;;;;;;;;;;5052203;28;20032;-66
2022/09/22 07:38:57;;;;;;;6.97;1.75;;;;;;;;;;5057796;28;20151;-66
2022/09/22 07:41:26;;;;;;;6.95;1.70;;;;;;;;;;5051932;28;20066;-66
2022/09/22 07:43:55;;;;;;;9.65;1.95;;;;;;;;;;5054750;28;20680;-66
2022/09/22 07:46:21;;;;;;;7.53;1.50;;;;;;;;;;5052438;28;20028;-67
2022/09/22 07:48:47;;;;;;;7.10;1.45;;;;;;;;;;5055252;28;20036;-66
2022/09/22 07:51:19;;;;;;;8.88;1.70;;;;;;;;;;5056276;28;20104;-67
2022/09/22 07:54:03;;;;;;;6.18;1.48;;;;;;;;;;5060356;28;20492;-66
2022/09/22 07:56:29;;;;;;;4.78;1.40;;;;;;;;;;5058989;28;20021;-66
2022/09/22 07:58:56;;;;;;;7.78;1.75;;;;;;;;;;5062825;28;20032;-67
2022/09/22 08:01:23;;;;;;;8.15;1.58;;;;;;;;;;5056688;28;20028;-66
2022/09/22 08:03:49;;;;;;;8.02;1.48;;;;;;;;;;5056179;28;20028;-66
2022/09/22 08:06:17;;;;;;;6.65;1.27;;;;;;;;;;5057000;28;20031;-67
2022/09/22 08:08:45;;;;;;;6.47;1.55;;;;;;;;;;5064287;28;20087;-67
2022/09/22 08:11:16;;;;;;;6.93;1.40;;;;;;;;;;5059478;28;20021;-67
2022/09/22 08:13:44;;;;;;;11.52;1.60;;;;;;;;;;5061121;28;20119;-66
2022/09/22 08:16:11;;;;;;;8.18;1.45;;;;;;;;;;5048474;28;20466;-65
2022/09/22 08:18:38;;;;;;;7.68;1.60;;;;;;;;;;5058977;28;20086;-66
2022/09/22 08:21:05;;;;;;;8.55;1.65;;;;;;;;;;5069177;28;20450;-66
2022/09/22 08:23:31;;;;;;;8.38;1.70;;;;;;;;;;5061362;28;20473;-67
2022/09/22 08:26:09;;;;;;;8.18;1.60;;;;;;;;;;5054183;28;20035;-66
2022/09/22 08:28:35;;;;;;;9.15;1.88;;;;;;;;;;5059898;28;20051;-69
2022/09/22 08:31:01;;;;;;;5.43;1.40;;;;;;;;;;5053164;28;20090;-66
2022/09/22 08:33:29;;;;;;;7.32;1.35;;;;;;;;;;5054692;28;20160;-66
2022/09/22 08:35:57;;;;;;;8.73;1.90;;;;;;;;;;5059823;28;21365;-67
2022/09/22 08:38:26;;;;;;;7.90;1.50;;;;;;;;;;5057257;28;20119;-68
2022/09/22 08:41:08;;;;;;;9.95;1.98;;;;;;;;;;5058515;28;20028;-67
2022/09/22 08:43:34;;;;;;;10.80;2.20;;;;;;;;;;5058430;28;20032;-67
2022/09/22 08:46:04;;;;;;;8.25;2.10;;;;;;;;;;5059948;28;20131;-67
2022/09/22 08:54:07;;;;;;;7.97;1.85;;;;;;;;;;5055969;28;20556;-68
2022/09/22 08:56:36;;;;;;;8.77;2.00;;;;;;;;;;5058996;28;20025;-67
2022/09/22 08:59:06;;;;;;;10.10;2.22;;;;;;;;;;5053855;28;20032;-67
2022/09/22 09:01:34;;;;;;;10.52;2.00;;;;;;;;;;5068624;28;20040;-67
2022/09/22 09:04:23;;;;;;;8.45;1.90;;;;;;;;;;5059224;28;20027;-66
2022/09/22 09:07:05;;;;;;;8.60;1.67;;;;;;;;;;5059350;28;20072;-67
2022/09/22 09:09:50;;;;;;;9.80;2.00;;;;;;;;;;5067635;28;20386;-67
2022/09/22 09:12:23;;;;;;;10.20;1.60;;;;;;;;;;5062882;28;20047;-67
2022/09/22 09:14:59;;;;;;;12.07;2.20;;;;;;;;;;5065610;28;20474;-67
2022/09/22 09:17:34;;;;;;;10.10;1.85;;;;;;;;;;5062137;28;20052;-66
2022/09/22 09:20:15;;;;;;;8.45;2.08;;;;;;;;;;5069159;28;20028;-69
2022/09/22 09:22:45;;;;;;;8.85;1.80;;;;;;;;;;5058199;28;20060;-69
2022/09/22 09:25:15;;;;;;;9.98;1.70;;;;;;;;;;5055174;28;20361;-67
2022/09/22 09:27:43;;;;;;;10.18;1.65;;;;;;;;;;5057334;28;20028;-67
2022/09/22 09:30:13;;;;;;;8.48;1.70;;;;;;;;;;5056855;28;20029;-67
2022/09/22 09:33:09;;;;;;;12.73;1.80;;;;;;;;;;5055688;28;20029;-66
2022/09/22 09:35:43;;;;;;;8.02;2.10;;;;;;;;;;5055731;28;20463;-66
2022/09/22 09:38:14;;;;;;;10.02;1.70;;;;;;;;;;5052499;28;20029;-66
2022/09/22 09:40:40;;;;;;;9.80;1.83;;;;;;;;;;5058046;28;20020;-66
2022/09/22 09:43:07;;;;;;;7.57;1.70;;;;;;;;;;5053360;28;20110;-65
2022/09/22 09:45:44;;;;;;;8.23;2.15;;;;;;;;;;5059443;28;20016;-66
2022/09/22 09:48:19;;;;;;;12.57;2.13;;;;;;;;;;5057677;28;20039;-66
2022/09/22 09:50:45;;;;;;;7.07;2.00;;;;;;;;;;5058184;28;20036;-66
2022/09/22 09:53:24;;;;;;;10.07;2.33;;;;;;;;;;5059335;28;20151;-66
2022/09/22 09:55:50;;;;;;;11.27;2.97;;;;;;;;;;5056222;28;20525;-67
2022/09/22 10:01:04;;;;;;;;;;;;;;;;;;5057904;28;20039;-66
2022/09/22 10:03:34;;;;;;;8.85;2.17;;;;;;;;;;5060741;28;19912;-66
2022/09/22 10:06:05;;;;;;;10.73;2.03;;;;;;;;;;5063474;28;20116;-67
2022/09/22 10:08:33;;;;;;;8.50;1.85;;;;;;;;;;5058444;28;20306;-67
2022/09/22 10:11:00;;;;;;;14.82;1.50;;;;;;;;;;5061317;28;20028;-66
2022/09/22 10:13:31;;;;;;;9.93;1.80;;;;;;;;;;5058296;28;20119;-67
2022/09/22 10:16:01;;;;;;;8.73;1.90;;;;;;;;;;5053706;28;20032;-67
2022/09/22 10:18:32;;;;;;;7.03;1.40;;;;;;;;;;5059058;28;20021;-67
2022/09/22 10:21:02;;;;;;;8.57;1.90;;;;;;;;;;5061101;28;20024;-68
2022/09/22 10:23:31;;;;;;;14.85;2.05;;;;;;;;;;5056662;28;20055;-67
2022/09/22 10:26:17;;;;;;;10.43;2.00;;;;;;;;;;5058572;28;20028;-67
2022/09/22 10:28:46;;;;;;;7.57;1.73;;;;;;;;;;5057892;28;20032;-69
2022/09/22 10:31:26;;;;;;;7.82;2.00;;;;;;;;;;5046864;28;20040;-67
2022/09/22 10:34:00;;;;;;;12.32;2.25;;;;;;;;;;5055834;28;20029;-67
2022/09/22 10:36:28;;;;;;;7.97;1.70;;;;;;;;;;5056287;28;20087;-67
2022/09/22 10:38:54;;;;;;;8.48;1.80;;;;;;;;;;5058290;28;20033;-66
2022/09/22 10:41:30;;;;;;;7.95;1.90;;;;;;;;;;5056574;28;20067;-66
2022/09/22 10:44:01;;;;;;;10.25;2.25;;;;;;;;;;5060708;28;20116;-66
2022/09/22 10:46:33;;;;;;;7.28;2.00;;;;;;;;;;5054869;28;20425;-66
2022/09/22 10:49:06;;;;;;;11.38;2.10;;;;;;;;;;5057133;28;20083;-66
2022/09/22 10:51:55;;;;;;;7.65;1.95;;;;;;;;;;5053761;28;20471;-67
2022/09/22 10:54:21;;;;;;;9.00;2.00;;;;;;;;;;5052435;28;20060;-67
2022/09/22 10:56:53;;;;;;;8.25;1.77;;;;;;;;;;5059451;28;20044;-66
2022/09/22 10:59:32;;;;;;;8.73;1.88;;;;;;;;;;5048131;28;20037;-67
2022/09/22 11:02:05;;;;;;;11.20;2.20;;;;;;;;;;5048156;28;20028;-67
2022/09/22 11:04:40;;;;;;;9.73;2.08;;;;;;;;;;5055435;28;20407;-66
2022/09/22 11:13:25;;;;;;;7.85;2.03;;;;;;;;;;5053591;28;20134;-67
2022/09/22 11:15:54;;;;;;;5.10;1.42;;;;;;;;;;5053591;28;20300;-66
2022/09/22 11:18:23;;;;;;;10.70;2.13;;;;;;;;;;5048978;28;20080;-67
2022/09/22 11:21:10;;;;;;;9.50;2.13;;;;;;;;;;5053750;28;20032;-67
2022/09/22 11:23:39;;;;;;;10.18;1.90;;;;;;;;;;5052307;28;20331;-68
2022/09/22 11:26:05;;;;;;;9.10;2.00;;;;;;;;;;5047109;28;20043;-67
2022/09/22 11:28:37;;;;;;;10.27;2.30;;;;;;;;;;5054142;28;20039;-68
2022/09/22 11:31:04;;;;;;;10.73;2.17;;;;;;;;;;5058188;28;20032;-66
2022/09/22 11:33:30;;;;;;;8.52;1.80;;;;;;;;;;5055755;28;20040;-67
2022/09/22 11:36:02;;;;;;;8.15;2.13;;;;;;;;;;5061463;28;20047;-67
2022/09/22 11:38:41;;;;;;;7.32;1.88;;;;;;;;;;5055599;28;20028;-67
2022/09/22 11:41:17;;;;;;;11.10;1.88;;;;;;;;;;5046672;28;20028;-67
2022/09/22 11:43:46;;;;;;;7.55;1.73;;;;;;;;;;5051458;28;20235;-66
2022/09/22 11:46:31;;;;;;;8.35;1.80;;;;;;;;;;5048896;28;20044;-67
2022/09/22 11:49:06;;;;;;;9.07;1.92;;;;;;;;;;5055097;28;20040;-66
2022/09/22 11:51:32;;;;;;;;;;;;;;;;;;5052545;28;20028;-66
2022/09/22 11:54:24;;;;;;;8.02;1.60;;;;;;;;;;5064642;28;19918;-67
2022/09/22 11:56:52;;;;;;;7.40;1.70;;;;;;;;;;5052312;28;20385;-67
2022/09/22 11:59:25;;;;;;;8.70;2.03;;;;;;;;;;5048791;28;20047;-67
2022/09/22 12:01:54;;;;;;;10.35;1.88;;;;;;;;;;5051916;28;20029;-66
2022/09/22 12:04:29;;;;;;;8.15;1.88;;;;;;;;;;5047074;28;20109;-67
2022/09/22 12:06:56;;;;;;;12.10;1.95;;;;;;;;;;5045210;28;20824;-68
2022/09/22 12:09:37;;;;;;;10.88;1.98;;;;;;;;;;5044185;28;20514;-67
2022/09/22 12:12:05;;;;;;;9.40;2.20;;;;;;;;;;5041734;28;20028;-66
2022/09/22 12:14:32;;;;;;;11.30;1.77;;;;;;;;;;5055931;28;20581;-67
2022/09/22 12:17:07;;;;;;;6.82;1.70;;;;;;;;;;5046274;28;20123;-67
2022/09/22 12:19:34;;;;;;;6.80;2.00;;;;;;;;;;5048105;28;20070;-68
2022/09/22 12:22:06;;;;;;;9.63;1.63;;;;;;;;;;5049941;28;20033;-68
2022/09/22 12:24:33;;;;;;;8.95;1.55;;;;;;;;;;5050075;28;20017;-67
2022/09/22 12:27:09;;;;;;;8.88;1.83;;;;;;;;;;5046396;28;20044;-67
2022/09/22 12:29:36;;;;;;;9.35;2.10;;;;;;;;;;5049019;28;20035;-67
2022/09/22 12:32:02;;;;;;;9.38;1.85;;;;;;;;;;5055634;28;20063;-67
2022/09/22 12:34:33;;;;;;;8.48;1.90;;;;;;;;;;5051605;28;20422;-67
2022/09/22 12:37:09;;;;;;;8.02;1.67;;;;;;;;;;5056466;28;20032;-66
2022/09/22 12:39:39;;;;;;;8.68;1.63;;;;;;;;;;5048940;28;20382;-67
2022/09/22 12:42:07;;;;;;;11.18;1.80;;;;;;;;;;5051909;28;20024;-68
2022/09/22 12:44:56;;;;;;;8.30;1.88;;;;;;;;;;5044581;28;20013;-66
2022/09/22 12:47:36;;;;;;;6.80;1.67;;;;;;;;;;5045435;28;20044;-67
2022/09/22 12:50:26;;;;;;;8.70;1.88;;;;;;;;;;5051871;28;20103;-67
2022/09/22 12:52:52;;;;;;;8.00;1.55;;;;;;;;;;5056137;28;20056;-66
2022/09/22 12:55:37;;;;;;;8.82;1.63;;;;;;;;;;5055110;28;20391;-67
2022/09/22 12:58:03;;;;;;;8.37;1.80;;;;;;;;;;5064033;28;20040;-66
2022/09/22 13:00:39;;;;;;;7.47;1.55;;;;;;;;;;5065314;28;20035;-66
2022/09/22 13:03:24;;;;;;;8.55;2.10;;;;;;;;;;5056231;28;20132;-67
2022/09/22 13:06:22;;;;;;;8.02;1.80;;;;;;;;;;5051817;28;20039;-67
2022/09/22 13:08:48;;;;;;;7.10;2.10;;;;;;;;;;5063268;28;20082;-67
2022/09/22 13:11:14;;;;;;;8.88;1.90;;;;;;;;;;5045988;28;20024;-66
2022/09/22 13:13:41;;;;;;;9.77;2.03;;;;;;;;;;5056565;28;20025;-67
2022/09/22 13:16:14;;;;;;;11.73;1.95;;;;;;;;;;5052207;28;20028;-67
2022/09/22 13:18:55;;;;;;;7.85;1.60;;;;;;;;;;5054007;28;20099;-67
2022/09/22 13:21:28;;;;;;;7.38;1.90;;;;;;;;;;5049857;28;20029;-65
2022/09/22 13:23:57;;;;;;;6.65;1.65;;;;;;;;;;5053112;28;20067;-66
2022/09/22 13:26:25;;;;;;;8.55;1.80;;;;;;;;;;5040864;28;20457;-67
2022/09/22 13:29:10;;;;;;;7.93;2.00;;;;;;;;;;5049933;28;20033;-67
2022/09/22 13:31:41;;;;;;;5.07;1.35;;;;;;;;;;5033950;28;20093;-67
2022/09/22 13:34:17;;;;;;;6.93;1.58;;;;;;;;;;5041911;28;20028;-67
2022/09/22 13:36:44;;;;;;;8.43;1.77;;;;;;;;;;5048380;28;20467;-67
2022/09/22 13:39:13;;;;;;;8.70;2.15;;;;;;;;;;5046200;28;20517;-67
2022/09/22 13:41:41;;;;;;;7.90;1.50;;;;;;;;;;5047365;28;20503;-66
2022/09/22 13:44:11;;;;;;;8.32;2.00;;;;;;;;;;5045330;28;20052;-67
2022/09/22 13:46:39;;;;;;;6.18;1.55;;;;;;;;;;5047928;28;20016;-67
2022/09/22 13:49:08;;;;;;;8.57;1.55;;;;;;;;;;5039327;28;20028;-67
2022/09/22 13:51:34;;;;;;;6.18;1.48;;;;;;;;;;5048457;28;20031;-66
2022/09/22 13:54:03;;;;;;;8.57;2.10;;;;;;;;;;5047769;28;20052;-67
2022/09/22 13:56:30;;;;;;;9.48;2.30;;;;;;;;;;5044812;28;20025;-67
2022/09/22 13:58:58;;;;;;;8.13;1.77;;;;;;;;;;5048584;28;20063;-66
2022/09/22 14:01:25;;;;;;;8.50;1.50;;;;;;;;;;5041856;28;20098;-66
2022/09/22 14:03:52;;;;;;;8.25;1.70;;;;;;;;;;5049263;28;20047;-66
2022/09/22 14:06:19;;;;;;;10.80;1.95;;;;;;;;;;5045965;28;20101;-66
2022/09/22 14:08:47;;;;;;;7.68;1.88;;;;;;;;;;5044890;28;20123;-65
2022/09/22 14:11:15;;;;;;;9.10;1.67;;;;;;;;;;5041236;28;20024;-66
2022/09/22 14:13:54;;;;;;;4.88;1.35;;;;;;;;;;5045777;28;20412;-65
2022/09/22 14:16:20;;;;;;;10.10;1.60;;;;;;;;;;5043336;28;20123;-65
2022/09/22 14:18:48;;;;;;;8.05;1.63;;;;;;;;;;5044582;28;20031;-65
2022/09/22 14:21:15;;;;;;;7.65;1.80;;;;;;;;;;5043638;28;20029;-65
2022/09/22 14:23:45;;;;;;;8.68;1.67;;;;;;;;;;5046947;28;20374;-66
2022/09/22 14:26:19;;;;;;;7.82;1.80;;;;;;;;;;5044386;28;20028;-66
2022/09/22 14:28:45;;;;;;;6.90;1.67;;;;;;;;;;5046494;28;20505;-65
2022/09/22 14:31:15;;;;;;;8.00;1.70;;;;;;;;;;5044820;28;20052;-66
2022/09/22 14:33:45;;;;;;;8.55;1.90;;;;;;;;;;5042708;28;20061;-66
2022/09/22 14:36:13;;;;;;;6.10;1.80;;;;;;;;;;5043571;28;20442;-67
2022/09/22 14:38:39;;;;;;;8.30;1.73;;;;;;;;;;5044935;28;20042;-66
2022/09/22 14:41:20;;;;;;;7.95;1.85;;;;;;;;;;5039008;28;20085;-66
2022/09/22 14:43:46;;;;;;;6.05;2.20;;;;;;;;;;5044081;28;20064;-66
2022/09/22 14:46:32;;;;;;;8.10;1.92;;;;;;;;;;5044887;28;20024;-66
2022/09/22 14:49:03;;;;;;;7.10;2.05;;;;;;;;;;5047586;28;20516;-66
2022/09/22 14:51:31;;;;;;;6.82;2.00;;;;;;;;;;5042437;28;20489;-66
2022/09/22 14:54:00;;;;;;;6.82;2.03;;;;;;;;;;5041246;28;20114;-66
2022/09/22 14:56:32;;;;;;;6.40;1.60;;;;;;;;;;5040771;28;20032;-66
2022/09/22 15:04:40;;;;;;;7.82;1.90;;;;;;;;;;5043837;28;20112;-66
2022/09/22 15:07:19;;;;;;;12.63;2.08;;;;;;;;;;5039907;28;20064;-65
2022/09/22 15:09:45;;;;;;;10.13;2.00;;;;;;;;;;5044230;28;20041;-65
2022/09/22 15:12:30;;;;;;;13.13;2.60;;;;;;;;;;5040682;28;20299;-66
2022/09/22 15:14:56;;;;;;;;;;;;;;;;;;5043051;28;20037;-66
2022/09/22 15:20:23;;;;;;;10.32;2.03;;;;;;;;;;5039062;28;20062;-65
2022/09/22 15:22:52;;;;;;;9.07;1.83;;;;;;;;;;5043699;28;20448;-65
2022/09/22 15:25:19;;;;;;;7.18;1.63;;;;;;;;;;5041570;28;20039;-66
2022/09/22 15:27:46;;;;;;;9.52;1.73;;;;;;;;;;5045161;28;20462;-67